IT-0364 weather

Aviosuperficie Aretusa Fly
Canicattini Bagni, Sicily, Italy

Public forecast

Using degrees Celsius for public forecast. Weather courtesy of forecast.io.

Closest aviation weather report (METAR) to Aviosuperficie Aretusa Fly

Closest report is Sigonella Navy Air Base, 23.4 nm (43.3 km) NNW. Retrieved 2019/12/06 09:55 UTC (16 minutes ago):

LICZ 060955Z 26004KT 9999 FEW050 17/16 Q1023 RMK BKN BKN200 VIS MIN 9999 WIND THR28 26005KT WIND THR10 /////KT A3024 BLU

Closest aviation forecast (TAF) to Aviosuperficie Aretusa Fly

Closest forecast is Sigonella Navy Air Base, 23.4 nm (43.3 km) NNW. Retrieved 2019/12/06 06:27 UTC (4 hours ago):

TAF LICZ 060500Z 0606/0706 27005KT 9999 FEW030 SCT080 TEMPO 0618/0724 5000 BR SCT010